sensor_id;sensor_type;location;lat;lon;timestamp;P1;durP1;ratioP1;P2;durP2;ratioP2
10699;SDS011;5401;41.986;21.452;2024-03-22T00:00:45;40.07;;;25.70;;
10699;SDS011;5401;41.986;21.452;2024-03-22T00:03:12;40.43;;;26.43;;
10699;SDS011;5401;41.986;21.452;2024-03-22T00:05:41;43.77;;;28.13;;
10699;SDS011;5401;41.986;21.452;2024-03-22T00:08:08;50.43;;;29.47;;
10699;SDS011;5401;41.986;21.452;2024-03-22T00:10:36;46.83;;;27.67;;
10699;SDS011;5401;41.986;21.452;2024-03-22T00:13:03;47.83;;;26.73;;
10699;SDS011;5401;41.986;21.452;2024-03-22T00:15:32;40.40;;;25.47;;
10699;SDS011;5401;41.986;21.452;2024-03-22T00:17:59;49.43;;;29.43;;
10699;SDS011;5401;41.986;21.452;2024-03-22T00:20:27;46.63;;;29.10;;
10699;SDS011;5401;41.986;21.452;2024-03-22T00:22:54;46.70;;;27.37;;
10699;SDS011;5401;41.986;21.452;2024-03-22T00:25:22;50.73;;;27.50;;
10699;SDS011;5401;41.986;21.452;2024-03-22T00:27:49;48.30;;;27.30;;
10699;SDS011;5401;41.986;21.452;2024-03-22T00:30:18;52.33;;;28.00;;
10699;SDS011;5401;41.986;21.452;2024-03-22T00:32:47;49.43;;;27.07;;
10699;SDS011;5401;41.986;21.452;2024-03-22T00:35:16;48.93;;;28.13;;
10699;SDS011;5401;41.986;21.452;2024-03-22T00:37:43;45.47;;;27.10;;
10699;SDS011;5401;41.986;21.452;2024-03-22T00:40:11;44.00;;;26.80;;
10699;SDS011;5401;41.986;21.452;2024-03-22T00:42:38;49.57;;;27.87;;
10699;SDS011;5401;41.986;21.452;2024-03-22T00:45:06;46.03;;;27.20;;
10699;SDS011;5401;41.986;21.452;2024-03-22T00:47:33;57.03;;;27.63;;
10699;SDS011;5401;41.986;21.452;2024-03-22T00:50:02;53.40;;;28.03;;
10699;SDS011;5401;41.986;21.452;2024-03-22T00:52:29;53.47;;;28.70;;
10699;SDS011;5401;41.986;21.452;2024-03-22T00:54:56;43.53;;;26.03;;
10699;SDS011;5401;41.986;21.452;2024-03-22T00:57:23;45.27;;;26.80;;
10699;SDS011;5401;41.986;21.452;2024-03-22T00:59:50;51.03;;;28.00;;
10699;SDS011;5401;41.986;21.452;2024-03-22T01:02:17;42.27;;;24.73;;
10699;SDS011;5401;41.986;21.452;2024-03-22T01:04:44;44.87;;;23.80;;
10699;SDS011;5401;41.986;21.452;2024-03-22T01:07:13;43.03;;;25.97;;
10699;SDS011;5401;41.986;21.452;2024-03-22T01:09:41;39.33;;;25.30;;
10699;SDS011;5401;41.986;21.452;2024-03-22T01:12:09;42.73;;;24.47;;
10699;SDS011;5401;41.986;21.452;2024-03-22T01:14:36;58.83;;;26.70;;
10699;SDS011;5401;41.986;21.452;2024-03-22T01:17:04;42.27;;;24.70;;
10699;SDS011;5401;41.986;21.452;2024-03-22T01:19:30;41.53;;;24.40;;
10699;SDS011;5401;41.986;21.452;2024-03-22T01:21:58;36.73;;;22.80;;
10699;SDS011;5401;41.986;21.452;2024-03-22T01:24:26;32.63;;;23.07;;
10699;SDS011;5401;41.986;21.452;2024-03-22T01:26:53;39.53;;;22.77;;
10699;SDS011;5401;41.986;21.452;2024-03-22T01:29:21;40.23;;;22.77;;
10699;SDS011;5401;41.986;21.452;2024-03-22T01:31:49;33.50;;;23.53;;
10699;SDS011;5401;41.986;21.452;2024-03-22T01:34:34;36.63;;;25.30;;
10699;SDS011;5401;41.986;21.452;2024-03-22T01:37:01;41.77;;;26.40;;
10699;SDS011;5401;41.986;21.452;2024-03-22T01:39:28;42.70;;;25.47;;
10699;SDS011;5401;41.986;21.452;2024-03-22T01:41:57;37.50;;;26.00;;
10699;SDS011;5401;41.986;21.452;2024-03-22T01:44:26;43.00;;;26.07;;
10699;SDS011;5401;41.986;21.452;2024-03-22T01:46:54;41.93;;;25.97;;
10699;SDS011;5401;41.986;21.452;2024-03-22T01:49:22;38.03;;;25.13;;
10699;SDS011;5401;41.986;21.452;2024-03-22T01:51:53;42.20;;;27.53;;
10699;SDS011;5401;41.986;21.452;2024-03-22T01:54:20;43.20;;;26.37;;
10699;SDS011;5401;41.986;21.452;2024-03-22T01:56:48;45.53;;;26.97;;
10699;SDS011;5401;41.986;21.452;2024-03-22T01:59:14;43.93;;;27.27;;
10699;SDS011;5401;41.986;21.452;2024-03-22T02:01:43;42.43;;;26.13;;
10699;SDS011;5401;41.986;21.452;2024-03-22T02:04:09;37.57;;;24.57;;
10699;SDS011;5401;41.986;21.452;2024-03-22T02:06:38;40.23;;;26.07;;
10699;SDS011;5401;41.986;21.452;2024-03-22T02:09:06;41.07;;;25.63;;
10699;SDS011;5401;41.986;21.452;2024-03-22T02:11:35;35.43;;;24.77;;
10699;SDS011;5401;41.986;21.452;2024-03-22T02:14:03;37.40;;;22.50;;
10699;SDS011;5401;41.986;21.452;2024-03-22T02:16:31;33.53;;;18.03;;
10699;SDS011;5401;41.986;21.452;2024-03-22T02:18:57;26.87;;;17.27;;
10699;SDS011;5401;41.986;21.452;2024-03-22T02:21:25;22.87;;;14.63;;
10699;SDS011;5401;41.986;21.452;2024-03-22T02:23:53;16.23;;;12.07;;
10699;SDS011;5401;41.986;21.452;2024-03-22T02:26:21;16.17;;;10.50;;
10699;SDS011;5401;41.986;21.452;2024-03-22T02:28:47;17.57;;;9.90;;
10699;SDS011;5401;41.986;21.452;2024-03-22T02:31:15;14.77;;;9.17;;
10699;SDS011;5401;41.986;21.452;2024-03-22T02:33:41;15.40;;;9.40;;
10699;SDS011;5401;41.986;21.452;2024-03-22T02:36:09;15.13;;;8.33;;
10699;SDS011;5401;41.986;21.452;2024-03-22T02:38:36;14.43;;;9.10;;
10699;SDS011;5401;41.986;21.452;2024-03-22T02:41:05;11.33;;;8.30;;
10699;SDS011;5401;41.986;21.452;2024-03-22T02:43:32;10.50;;;7.33;;
10699;SDS011;5401;41.986;21.452;2024-03-22T02:46:00;8.83;;;7.23;;
10699;SDS011;5401;41.986;21.452;2024-03-22T02:48:26;10.03;;;7.40;;
10699;SDS011;5401;41.986;21.452;2024-03-22T02:50:55;10.77;;;6.70;;
10699;SDS011;5401;41.986;21.452;2024-03-22T02:53:22;10.27;;;6.67;;
10699;SDS011;5401;41.986;21.452;2024-03-22T02:55:49;11.93;;;7.20;;
10699;SDS011;5401;41.986;21.452;2024-03-22T02:58:19;10.73;;;6.70;;
10699;SDS011;5401;41.986;21.452;2024-03-22T03:00:47;9.57;;;7.57;;
10699;SDS011;5401;41.986;21.452;2024-03-22T03:03:14;8.97;;;7.30;;
10699;SDS011;5401;41.986;21.452;2024-03-22T03:05:41;9.83;;;7.43;;
10699;SDS011;5401;41.986;21.452;2024-03-22T03:08:08;9.03;;;7.47;;
10699;SDS011;5401;41.986;21.452;2024-03-22T03:10:35;8.73;;;6.53;;
10699;SDS011;5401;41.986;21.452;2024-03-22T03:13:02;16.80;;;7.20;;
10699;SDS011;5401;41.986;21.452;2024-03-22T03:15:31;15.00;;;7.30;;
10699;SDS011;5401;41.986;21.452;2024-03-22T03:17:58;12.43;;;7.40;;
10699;SDS011;5401;41.986;21.452;2024-03-22T03:20:25;10.60;;;7.53;;
10699;SDS011;5401;41.986;21.452;2024-03-22T03:22:52;12.90;;;7.80;;
10699;SDS011;5401;41.986;21.452;2024-03-22T03:25:21;13.47;;;7.17;;
10699;SDS011;5401;41.986;21.452;2024-03-22T03:27:47;10.90;;;7.57;;
10699;SDS011;5401;41.986;21.452;2024-03-22T03:30:15;10.13;;;6.70;;
10699;SDS011;5401;41.986;21.452;2024-03-22T03:32:43;9.50;;;7.13;;
10699;SDS011;5401;41.986;21.452;2024-03-22T03:35:10;12.43;;;6.60;;
10699;SDS011;5401;41.986;21.452;2024-03-22T03:37:37;13.23;;;7.03;;
10699;SDS011;5401;41.986;21.452;2024-03-22T03:40:05;9.20;;;7.40;;
10699;SDS011;5401;41.986;21.452;2024-03-22T03:42:33;9.67;;;7.30;;
10699;SDS011;5401;41.986;21.452;2024-03-22T03:45:00;9.23;;;6.73;;
10699;SDS011;5401;41.986;21.452;2024-03-22T03:47:27;15.40;;;8.40;;
10699;SDS011;5401;41.986;21.452;2024-03-22T03:49:56;11.97;;;6.90;;
10699;SDS011;5401;41.986;21.452;2024-03-22T03:52:22;13.67;;;7.70;;
10699;SDS011;5401;41.986;21.452;2024-03-22T03:54:50;18.67;;;13.80;;
10699;SDS011;5401;41.986;21.452;2024-03-22T03:57:16;21.20;;;13.27;;
10699;SDS011;5401;41.986;21.452;2024-03-22T03:59:44;14.97;;;12.13;;
10699;SDS011;5401;41.986;21.452;2024-03-22T04:02:11;19.83;;;13.13;;
10699;SDS011;5401;41.986;21.452;2024-03-22T04:04:38;18.07;;;12.53;;
10699;SDS011;5401;41.986;21.452;2024-03-22T04:07:06;17.17;;;11.30;;
10699;SDS011;5401;41.986;21.452;2024-03-22T04:09:34;17.77;;;12.90;;
10699;SDS011;5401;41.986;21.452;2024-03-22T04:12:00;18.50;;;12.67;;
10699;SDS011;5401;41.986;21.452;2024-03-22T04:14:28;14.43;;;11.40;;
10699;SDS011;5401;41.986;21.452;2024-03-22T04:16:54;15.93;;;11.13;;
10699;SDS011;5401;41.986;21.452;2024-03-22T04:19:22;14.60;;;12.20;;
10699;SDS011;5401;41.986;21.452;2024-03-22T04:21:49;14.47;;;11.73;;
10699;SDS011;5401;41.986;21.452;2024-03-22T04:24:18;17.43;;;12.40;;
10699;SDS011;5401;41.986;21.452;2024-03-22T04:26:45;17.87;;;13.00;;
10699;SDS011;5401;41.986;21.452;2024-03-22T04:29:12;17.27;;;11.87;;
10699;SDS011;5401;41.986;21.452;2024-03-22T04:31:39;17.63;;;12.20;;
10699;SDS011;5401;41.986;21.452;2024-03-22T04:34:06;15.37;;;11.83;;
10699;SDS011;5401;41.986;21.452;2024-03-22T04:36:33;18.03;;;11.87;;
10699;SDS011;5401;41.986;21.452;2024-03-22T04:39:00;17.47;;;12.33;;
10699;SDS011;5401;41.986;21.452;2024-03-22T04:41:30;18.83;;;11.83;;
10699;SDS011;5401;41.986;21.452;2024-03-22T04:43:58;15.93;;;10.87;;
10699;SDS011;5401;41.986;21.452;2024-03-22T04:46:25;15.33;;;11.83;;
10699;SDS011;5401;41.986;21.452;2024-03-22T04:48:53;13.77;;;11.47;;
10699;SDS011;5401;41.986;21.452;2024-03-22T04:51:19;15.77;;;11.03;;
10699;SDS011;5401;41.986;21.452;2024-03-22T04:53:47;15.63;;;10.97;;
10699;SDS011;5401;41.986;21.452;2024-03-22T04:56:14;22.07;;;12.77;;
10699;SDS011;5401;41.986;21.452;2024-03-22T04:58:42;20.17;;;12.87;;
10699;SDS011;5401;41.986;21.452;2024-03-22T05:01:09;16.50;;;12.07;;
10699;SDS011;5401;41.986;21.452;2024-03-22T05:03:38;20.77;;;12.60;;
10699;SDS011;5401;41.986;21.452;2024-03-22T05:06:06;16.47;;;13.20;;
10699;SDS011;5401;41.986;21.452;2024-03-22T05:08:34;23.93;;;13.10;;
10699;SDS011;5401;41.986;21.452;2024-03-22T05:11:00;23.27;;;14.43;;
10699;SDS011;5401;41.986;21.452;2024-03-22T05:13:28;23.53;;;15.43;;
10699;SDS011;5401;41.986;21.452;2024-03-22T05:15:56;30.27;;;15.40;;
10699;SDS011;5401;41.986;21.452;2024-03-22T05:18:24;21.27;;;15.33;;
10699;SDS011;5401;41.986;21.452;2024-03-22T05:20:50;23.60;;;16.37;;
10699;SDS011;5401;41.986;21.452;2024-03-22T05:23:18;22.97;;;16.93;;
10699;SDS011;5401;41.986;21.452;2024-03-22T05:25:44;24.23;;;15.17;;
10699;SDS011;5401;41.986;21.452;2024-03-22T05:28:12;25.80;;;15.23;;
10699;SDS011;5401;41.986;21.452;2024-03-22T05:30:38;23.37;;;15.67;;
10699;SDS011;5401;41.986;21.452;2024-03-22T05:33:07;22.00;;;15.03;;
10699;SDS011;5401;41.986;21.452;2024-03-22T05:35:34;25.70;;;15.57;;
10699;SDS011;5401;41.986;21.452;2024-03-22T05:38:01;26.13;;;15.50;;
10699;SDS011;5401;41.986;21.452;2024-03-22T05:40:29;20.33;;;14.13;;
10699;SDS011;5401;41.986;21.452;2024-03-22T05:42:55;20.77;;;14.77;;
10699;SDS011;5401;41.986;21.452;2024-03-22T05:45:23;22.53;;;14.60;;
10699;SDS011;5401;41.986;21.452;2024-03-22T05:47:49;20.30;;;13.63;;
10699;SDS011;5401;41.986;21.452;2024-03-22T05:50:19;19.17;;;14.17;;
10699;SDS011;5401;41.986;21.452;2024-03-22T05:52:46;18.97;;;13.97;;
10699;SDS011;5401;41.986;21.452;2024-03-22T05:55:13;20.50;;;14.40;;
10699;SDS011;5401;41.986;21.452;2024-03-22T05:57:40;26.27;;;15.20;;
10699;SDS011;5401;41.986;21.452;2024-03-22T06:00:07;21.70;;;14.90;;
10699;SDS011;5401;41.986;21.452;2024-03-22T06:02:35;22.40;;;14.43;;
10699;SDS011;5401;41.986;21.452;2024-03-22T06:05:01;22.30;;;13.93;;
10699;SDS011;5401;41.986;21.452;2024-03-22T06:07:31;18.03;;;13.43;;
10699;SDS011;5401;41.986;21.452;2024-03-22T06:10:06;21.80;;;11.73;;
10699;SDS011;5401;41.986;21.452;2024-03-22T06:12:33;17.00;;;12.63;;
10699;SDS011;5401;41.986;21.452;2024-03-22T06:15:01;19.27;;;13.17;;
10699;SDS011;5401;41.986;21.452;2024-03-22T06:17:32;14.60;;;11.93;;
10699;SDS011;5401;41.986;21.452;2024-03-22T06:20:00;17.53;;;12.27;;
10699;SDS011;5401;41.986;21.452;2024-03-22T06:22:26;17.27;;;12.30;;
10699;SDS011;5401;41.986;21.452;2024-03-22T06:24:55;17.83;;;12.07;;
10699;SDS011;5401;41.986;21.452;2024-03-22T06:27:22;23.00;;;12.47;;
10699;SDS011;5401;41.986;21.452;2024-03-22T06:29:49;17.23;;;12.47;;
10699;SDS011;5401;41.986;21.452;2024-03-22T06:32:16;20.47;;;12.83;;
10699;SDS011;5401;41.986;21.452;2024-03-22T06:34:43;13.90;;;10.93;;
10699;SDS011;5401;41.986;21.452;2024-03-22T06:37:10;20.43;;;12.50;;
10699;SDS011;5401;41.986;21.452;2024-03-22T06:39:38;19.20;;;12.27;;
10699;SDS011;5401;41.986;21.452;2024-03-22T06:42:06;19.83;;;11.37;;
10699;SDS011;5401;41.986;21.452;2024-03-22T06:44:34;19.67;;;12.03;;
10699;SDS011;5401;41.986;21.452;2024-03-22T06:47:00;16.77;;;11.60;;
10699;SDS011;5401;41.986;21.452;2024-03-22T06:49:28;19.43;;;11.33;;
10699;SDS011;5401;41.986;21.452;2024-03-22T06:51:55;16.00;;;11.00;;
10699;SDS011;5401;41.986;21.452;2024-03-22T06:54:22;19.80;;;11.23;;
10699;SDS011;5401;41.986;21.452;2024-03-22T06:56:49;23.83;;;11.67;;
10699;SDS011;5401;41.986;21.452;2024-03-22T06:59:18;19.83;;;11.80;;
10699;SDS011;5401;41.986;21.452;2024-03-22T07:01:45;22.20;;;12.30;;
10699;SDS011;5401;41.986;21.452;2024-03-22T07:04:12;20.73;;;12.03;;
10699;SDS011;5401;41.986;21.452;2024-03-22T07:06:39;21.13;;;11.90;;
10699;SDS011;5401;41.986;21.452;2024-03-22T07:09:08;16.40;;;12.07;;
10699;SDS011;5401;41.986;21.452;2024-03-22T07:11:35;14.90;;;11.10;;
10699;SDS011;5401;41.986;21.452;2024-03-22T07:14:04;18.67;;;11.80;;
10699;SDS011;5401;41.986;21.452;2024-03-22T07:16:35;23.03;;;11.93;;
10699;SDS011;5401;41.986;21.452;2024-03-22T07:19:03;20.40;;;11.30;;
10699;SDS011;5401;41.986;21.452;2024-03-22T07:21:32;20.27;;;11.80;;
10699;SDS011;5401;41.986;21.452;2024-03-22T07:23:59;21.63;;;10.80;;
10699;SDS011;5401;41.986;21.452;2024-03-22T07:26:26;16.33;;;10.33;;
10699;SDS011;5401;41.986;21.452;2024-03-22T07:28:54;13.87;;;10.33;;
10699;SDS011;5401;41.986;21.452;2024-03-22T07:31:21;18.77;;;12.87;;
10699;SDS011;5401;41.986;21.452;2024-03-22T07:33:51;16.50;;;10.23;;
10699;SDS011;5401;41.986;21.452;2024-03-22T07:36:19;16.90;;;9.93;;
10699;SDS011;5401;41.986;21.452;2024-03-22T07:38:47;19.43;;;12.33;;
10699;SDS011;5401;41.986;21.452;2024-03-22T07:41:14;18.43;;;10.77;;
10699;SDS011;5401;41.986;21.452;2024-03-22T07:43:42;16.87;;;10.93;;
10699;SDS011;5401;41.986;21.452;2024-03-22T07:46:15;16.70;;;10.17;;
10699;SDS011;5401;41.986;21.452;2024-03-22T07:48:44;13.47;;;9.20;;
10699;SDS011;5401;41.986;21.452;2024-03-22T07:51:12;16.00;;;9.37;;
10699;SDS011;5401;41.986;21.452;2024-03-22T07:53:40;11.20;;;9.07;;
10699;SDS011;5401;41.986;21.452;2024-03-22T07:56:07;11.90;;;9.03;;
10699;SDS011;5401;41.986;21.452;2024-03-22T07:58:35;12.43;;;8.80;;
10699;SDS011;5401;41.986;21.452;2024-03-22T08:01:03;15.70;;;9.30;;
10699;SDS011;5401;41.986;21.452;2024-03-22T08:03:35;17.83;;;9.80;;
10699;SDS011;5401;41.986;21.452;2024-03-22T08:06:04;11.03;;;8.83;;
10699;SDS011;5401;41.986;21.452;2024-03-22T08:08:35;11.03;;;7.90;;
10699;SDS011;5401;41.986;21.452;2024-03-22T08:11:01;13.60;;;8.47;;
10699;SDS011;5401;41.986;21.452;2024-03-22T08:13:29;14.73;;;8.70;;
10699;SDS011;5401;41.986;21.452;2024-03-22T08:15:56;11.23;;;9.00;;
10699;SDS011;5401;41.986;21.452;2024-03-22T08:18:24;11.43;;;9.07;;
10699;SDS011;5401;41.986;21.452;2024-03-22T08:20:51;11.60;;;8.80;;
10699;SDS011;5401;41.986;21.452;2024-03-22T08:23:19;14.43;;;8.67;;
10699;SDS011;5401;41.986;21.452;2024-03-22T08:25:50;12.60;;;8.87;;
10699;SDS011;5401;41.986;21.452;2024-03-22T08:28:18;11.93;;;9.20;;
10699;SDS011;5401;41.986;21.452;2024-03-22T08:30:45;11.33;;;8.83;;
10699;SDS011;5401;41.986;21.452;2024-03-22T08:33:13;14.87;;;9.03;;
10699;SDS011;5401;41.986;21.452;2024-03-22T08:35:41;12.87;;;8.80;;
10699;SDS011;5401;41.986;21.452;2024-03-22T08:38:09;13.67;;;8.97;;
10699;SDS011;5401;41.986;21.452;2024-03-22T08:40:36;12.63;;;9.23;;
10699;SDS011;5401;41.986;21.452;2024-03-22T08:43:11;15.23;;;9.83;;
10699;SDS011;5401;41.986;21.452;2024-03-22T08:45:40;12.57;;;9.10;;
10699;SDS011;5401;41.986;21.452;2024-03-22T08:48:08;12.13;;;8.67;;
10699;SDS011;5401;41.986;21.452;2024-03-22T08:50:37;11.77;;;8.90;;
10699;SDS011;5401;41.986;21.452;2024-03-22T08:53:05;18.27;;;8.93;;
10699;SDS011;5401;41.986;21.452;2024-03-22T08:55:34;14.87;;;9.23;;
10699;SDS011;5401;41.986;21.452;2024-03-22T08:58:03;14.33;;;9.07;;
10699;SDS011;5401;41.986;21.452;2024-03-22T09:00:33;11.80;;;9.20;;
10699;SDS011;5401;41.986;21.452;2024-03-22T09:03:05;11.37;;;8.97;;
10699;SDS011;5401;41.986;21.452;2024-03-22T09:05:32;15.80;;;8.87;;
10699;SDS011;5401;41.986;21.452;2024-03-22T09:08:02;12.43;;;8.60;;
10699;SDS011;5401;41.986;21.452;2024-03-22T09:10:31;12.90;;;8.97;;
10699;SDS011;5401;41.986;21.452;2024-03-22T09:13:01;17.97;;;9.77;;
10699;SDS011;5401;41.986;21.452;2024-03-22T09:15:29;14.43;;;9.63;;
10699;SDS011;5401;41.986;21.452;2024-03-22T09:17:59;15.30;;;9.40;;
10699;SDS011;5401;41.986;21.452;2024-03-22T09:20:26;15.00;;;8.57;;
10699;SDS011;5401;41.986;21.452;2024-03-22T09:22:55;11.47;;;8.97;;
10699;SDS011;5401;41.986;21.452;2024-03-22T09:25:25;13.07;;;8.67;;
10699;SDS011;5401;41.986;21.452;2024-03-22T09:27:56;12.50;;;8.63;;
10699;SDS011;5401;41.986;21.452;2024-03-22T09:30:23;12.97;;;8.50;;
10699;SDS011;5401;41.986;21.452;2024-03-22T09:32:51;11.70;;;8.63;;
10699;SDS011;5401;41.986;21.452;2024-03-22T09:35:20;13.80;;;9.13;;
10699;SDS011;5401;41.986;21.452;2024-03-22T09:37:48;10.50;;;8.40;;
10699;SDS011;5401;41.986;21.452;2024-03-22T09:40:15;13.37;;;8.50;;
10699;SDS011;5401;41.986;21.452;2024-03-22T09:42:44;12.70;;;8.83;;
10699;SDS011;5401;41.986;21.452;2024-03-22T09:45:15;17.13;;;8.30;;
10699;SDS011;5401;41.986;21.452;2024-03-22T09:47:47;12.27;;;8.27;;
10699;SDS011;5401;41.986;21.452;2024-03-22T09:50:20;11.20;;;7.93;;
10699;SDS011;5401;41.986;21.452;2024-03-22T09:52:49;12.67;;;8.60;;
10699;SDS011;5401;41.986;21.452;2024-03-22T09:55:18;13.47;;;8.03;;
10699;SDS011;5401;41.986;21.452;2024-03-22T09:57:50;11.07;;;8.00;;
10699;SDS011;5401;41.986;21.452;2024-03-22T10:03:44;10.97;;;7.67;;
10699;SDS011;5401;41.986;21.452;2024-03-22T10:06:16;9.93;;;7.13;;
10699;SDS011;5401;41.986;21.452;2024-03-22T10:08:44;13.63;;;8.70;;
10699;SDS011;5401;41.986;21.452;2024-03-22T10:11:11;16.37;;;7.90;;
10699;SDS011;5401;41.986;21.452;2024-03-22T10:13:40;9.53;;;7.27;;
10699;SDS011;5401;41.986;21.452;2024-03-22T10:16:06;13.80;;;7.93;;
10699;SDS011;5401;41.986;21.452;2024-03-22T10:18:36;12.83;;;8.20;;
10699;SDS011;5401;41.986;21.452;2024-03-22T10:21:03;13.70;;;8.20;;
10699;SDS011;5401;41.986;21.452;2024-03-22T10:23:35;13.10;;;7.70;;
10699;SDS011;5401;41.986;21.452;2024-03-22T10:26:02;12.23;;;7.70;;
10699;SDS011;5401;41.986;21.452;2024-03-22T10:28:30;10.97;;;8.43;;
10699;SDS011;5401;41.986;21.452;2024-03-22T10:30:57;12.40;;;8.40;;
10699;SDS011;5401;41.986;21.452;2024-03-22T10:33:26;20.37;;;7.40;;
10699;SDS011;5401;41.986;21.452;2024-03-22T10:35:54;11.00;;;7.57;;
10699;SDS011;5401;41.986;21.452;2024-03-22T10:38:22;11.93;;;7.67;;
10699;SDS011;5401;41.986;21.452;2024-03-22T10:40:53;12.17;;;7.63;;
10699;SDS011;5401;41.986;21.452;2024-03-22T10:43:23;12.17;;;7.03;;
10699;SDS011;5401;41.986;21.452;2024-03-22T10:45:49;13.83;;;7.10;;
10699;SDS011;5401;41.986;21.452;2024-03-22T10:48:20;15.23;;;7.43;;
10699;SDS011;5401;41.986;21.452;2024-03-22T10:50:50;10.83;;;7.40;;
10699;SDS011;5401;41.986;21.452;2024-03-22T10:53:21;10.00;;;7.30;;
10699;SDS011;5401;41.986;21.452;2024-03-22T10:55:50;29.30;;;23.00;;
10699;SDS011;5401;41.986;21.452;2024-03-22T10:58:21;15.37;;;9.23;;
10699;SDS011;5401;41.986;21.452;2024-03-22T11:00:51;33.67;;;28.20;;
10699;SDS011;5401;41.986;21.452;2024-03-22T11:03:19;21.53;;;14.30;;
10699;SDS011;5401;41.986;21.452;2024-03-22T11:05:46;25.50;;;14.27;;
10699;SDS011;5401;41.986;21.452;2024-03-22T11:08:22;19.97;;;11.50;;
10699;SDS011;5401;41.986;21.452;2024-03-22T11:10:49;57.30;;;41.93;;
10699;SDS011;5401;41.986;21.452;2024-03-22T11:13:19;15.00;;;10.13;;
10699;SDS011;5401;41.986;21.452;2024-03-22T11:15:48;9.73;;;7.73;;
10699;SDS011;5401;41.986;21.452;2024-03-22T11:18:17;18.20;;;12.57;;
10699;SDS011;5401;41.986;21.452;2024-03-22T11:20:45;13.00;;;9.03;;
10699;SDS011;5401;41.986;21.452;2024-03-22T11:23:13;11.57;;;8.80;;
10699;SDS011;5401;41.986;21.452;2024-03-22T11:25:40;14.63;;;8.87;;
10699;SDS011;5401;41.986;21.452;2024-03-22T11:28:09;15.77;;;8.27;;
10699;SDS011;5401;41.986;21.452;2024-03-22T11:30:36;17.37;;;8.97;;
10699;SDS011;5401;41.986;21.452;2024-03-22T11:33:05;13.83;;;10.30;;
10699;SDS011;5401;41.986;21.452;2024-03-22T11:35:32;25.10;;;16.50;;
10699;SDS011;5401;41.986;21.452;2024-03-22T11:38:01;15.40;;;11.90;;
10699;SDS011;5401;41.986;21.452;2024-03-22T11:40:30;16.87;;;10.03;;
10699;SDS011;5401;41.986;21.452;2024-03-22T11:43:01;12.53;;;10.43;;
10699;SDS011;5401;41.986;21.452;2024-03-22T11:45:31;17.13;;;12.10;;
10699;SDS011;5401;41.986;21.452;2024-03-22T11:48:03;12.70;;;9.53;;
10699;SDS011;5401;41.986;21.452;2024-03-22T11:50:31;12.57;;;9.10;;
10699;SDS011;5401;41.986;21.452;2024-03-22T11:53:00;12.17;;;8.80;;
10699;SDS011;5401;41.986;21.452;2024-03-22T11:55:29;10.53;;;8.40;;
10699;SDS011;5401;41.986;21.452;2024-03-22T11:58:00;10.77;;;7.70;;
10699;SDS011;5401;41.986;21.452;2024-03-22T12:00:27;12.17;;;7.97;;
10699;SDS011;5401;41.986;21.452;2024-03-22T12:02:56;12.70;;;8.50;;
10699;SDS011;5401;41.986;21.452;2024-03-22T12:05:25;11.97;;;8.33;;
10699;SDS011;5401;41.986;21.452;2024-03-22T12:07:56;9.80;;;7.70;;
10699;SDS011;5401;41.986;21.452;2024-03-22T12:10:23;10.03;;;7.17;;
10699;SDS011;5401;41.986;21.452;2024-03-22T12:12:53;10.83;;;7.40;;
10699;SDS011;5401;41.986;21.452;2024-03-22T12:15:20;7.37;;;6.47;;
10699;SDS011;5401;41.986;21.452;2024-03-22T12:17:48;12.97;;;7.40;;
10699;SDS011;5401;41.986;21.452;2024-03-22T12:20:16;11.97;;;7.47;;
10699;SDS011;5401;41.986;21.452;2024-03-22T12:22:45;13.07;;;7.50;;
10699;SDS011;5401;41.986;21.452;2024-03-22T12:25:11;14.10;;;7.00;;
10699;SDS011;5401;41.986;21.452;2024-03-22T12:27:39;11.37;;;7.37;;
10699;SDS011;5401;41.986;21.452;2024-03-22T12:30:06;12.40;;;7.17;;
10699;SDS011;5401;41.986;21.452;2024-03-22T12:32:34;8.00;;;6.13;;
10699;SDS011;5401;41.986;21.452;2024-03-22T12:35:02;8.40;;;6.23;;
10699;SDS011;5401;41.986;21.452;2024-03-22T12:37:31;9.47;;;6.60;;
10699;SDS011;5401;41.986;21.452;2024-03-22T12:40:00;12.37;;;7.13;;
10699;SDS011;5401;41.986;21.452;2024-03-22T12:42:30;7.90;;;6.10;;
10699;SDS011;5401;41.986;21.452;2024-03-22T12:44:58;10.40;;;6.03;;
10699;SDS011;5401;41.986;21.452;2024-03-22T12:47:27;8.10;;;6.47;;
10699;SDS011;5401;41.986;21.452;2024-03-22T12:52:47;8.03;;;6.17;;
10699;SDS011;5401;41.986;21.452;2024-03-22T12:55:15;10.80;;;5.73;;
10699;SDS011;5401;41.986;21.452;2024-03-22T12:57:44;10.37;;;6.83;;
10699;SDS011;5401;41.986;21.452;2024-03-22T13:00:12;11.70;;;6.27;;
10699;SDS011;5401;41.986;21.452;2024-03-22T13:02:44;7.37;;;6.20;;
10699;SDS011;5401;41.986;21.452;2024-03-22T13:05:11;11.23;;;6.53;;
10699;SDS011;5401;41.986;21.452;2024-03-22T13:07:39;8.70;;;6.27;;
10699;SDS011;5401;41.986;21.452;2024-03-22T13:10:05;7.97;;;5.90;;
10699;SDS011;5401;41.986;21.452;2024-03-22T13:12:37;10.03;;;6.30;;
10699;SDS011;5401;41.986;21.452;2024-03-22T13:15:06;8.03;;;5.90;;
10699;SDS011;5401;41.986;21.452;2024-03-22T13:17:35;9.00;;;6.20;;
10699;SDS011;5401;41.986;21.452;2024-03-22T13:20:02;8.83;;;6.60;;
10699;SDS011;5401;41.986;21.452;2024-03-22T13:22:36;7.83;;;6.20;;
10699;SDS011;5401;41.986;21.452;2024-03-22T13:25:03;12.63;;;6.60;;
10699;SDS011;5401;41.986;21.452;2024-03-22T13:27:37;9.53;;;6.20;;
10699;SDS011;5401;41.986;21.452;2024-03-22T13:30:05;10.67;;;5.67;;
10699;SDS011;5401;41.986;21.452;2024-03-22T13:32:36;9.73;;;6.77;;
10699;SDS011;5401;41.986;21.452;2024-03-22T13:35:02;11.63;;;5.80;;
10699;SDS011;5401;41.986;21.452;2024-03-22T13:37:31;9.30;;;5.80;;
10699;SDS011;5401;41.986;21.452;2024-03-22T13:39:58;9.87;;;5.70;;
10699;SDS011;5401;41.986;21.452;2024-03-22T13:42:27;8.57;;;6.07;;
10699;SDS011;5401;41.986;21.452;2024-03-22T13:44:55;9.87;;;5.90;;
10699;SDS011;5401;41.986;21.452;2024-03-22T13:47:24;10.53;;;6.30;;
10699;SDS011;5401;41.986;21.452;2024-03-22T13:49:53;7.63;;;6.70;;
10699;SDS011;5401;41.986;21.452;2024-03-22T13:52:22;11.97;;;6.13;;
10699;SDS011;5401;41.986;21.452;2024-03-22T13:54:51;8.57;;;6.30;;
10699;SDS011;5401;41.986;21.452;2024-03-22T13:57:20;8.17;;;5.30;;
10699;SDS011;5401;41.986;21.452;2024-03-22T13:59:47;9.30;;;6.00;;
10699;SDS011;5401;41.986;21.452;2024-03-22T14:02:17;10.10;;;5.50;;
10699;SDS011;5401;41.986;21.452;2024-03-22T14:04:44;6.50;;;5.57;;
10699;SDS011;5401;41.986;21.452;2024-03-22T14:07:12;6.47;;;5.63;;
10699;SDS011;5401;41.986;21.452;2024-03-22T14:09:40;9.37;;;5.77;;
10699;SDS011;5401;41.986;21.452;2024-03-22T14:12:09;8.37;;;5.93;;
10699;SDS011;5401;41.986;21.452;2024-03-22T14:14:35;10.87;;;5.70;;
10699;SDS011;5401;41.986;21.452;2024-03-22T14:17:03;8.47;;;5.60;;
10699;SDS011;5401;41.986;21.452;2024-03-22T14:19:31;7.93;;;6.13;;
10699;SDS011;5401;41.986;21.452;2024-03-22T14:21:59;9.80;;;6.13;;
10699;SDS011;5401;41.986;21.452;2024-03-22T14:24:28;9.53;;;7.07;;
10699;SDS011;5401;41.986;21.452;2024-03-22T14:26:56;10.93;;;6.17;;
10699;SDS011;5401;41.986;21.452;2024-03-22T14:29:23;7.43;;;6.07;;
10699;SDS011;5401;41.986;21.452;2024-03-22T14:31:52;8.93;;;5.90;;
10699;SDS011;5401;41.986;21.452;2024-03-22T14:34:20;10.07;;;5.63;;
10699;SDS011;5401;41.986;21.452;2024-03-22T14:36:52;9.53;;;5.80;;
10699;SDS011;5401;41.986;21.452;2024-03-22T14:39:19;5.83;;;5.00;;
10699;SDS011;5401;41.986;21.452;2024-03-22T14:41:47;8.13;;;5.70;;